Time;durP1;ratioP1;P1;durP2;ratioP2;P2;SDS_P1;SDS_P2;PMS_P1;PMS_P2;Temp;Humidity;BMP_temperature;BMP_pressure;BME280_temperature;BME280_humidity;BME280_pressure;Samples;Min_cycle;Max_cycle;Signal;HPM_P1;HPM_P2
2023/07/13 00:01:12;;;;;;;;;;;16.10;99.90;;;;;;5111786;28;20025;-82
2023/07/13 00:03:40;;;;;;;;;;;16.00;99.90;;;;;;5095050;28;19920;-78
2023/07/13 00:06:07;;;;;;;;;;;16.00;99.90;;;;;;5112251;28;19928;-80
2023/07/13 00:08:33;;;;;;;;;;;16.10;99.90;;;;;;5112797;28;20380;-80
2023/07/13 00:10:59;;;;;;;;;;;16.10;99.90;;;;;;5131289;27;20288;-81
2023/07/13 00:13:24;;;;;;;;;;;16.10;99.90;;;;;;5114481;27;19919;-78
2023/07/13 00:15:50;;;;;;;;;;;16.10;99.90;;;;;;5132227;27;19924;-79
2023/07/13 00:18:16;;;;;;;;;;;16.10;99.90;;;;;;5098240;27;19926;-80
2023/07/13 00:20:41;;;;;;;;;;;16.10;99.90;;;;;;5114933;27;20402;-78
2023/07/13 00:23:07;;;;;;;;;;;16.20;99.90;;;;;;5132078;27;19924;-80
2023/07/13 00:25:33;;;;;;;;;;;16.20;99.90;;;;;;5132045;27;20011;-78
2023/07/13 00:27:59;;;;;;;;;;;16.20;99.90;;;;;;5115033;27;20277;-82
2023/07/13 00:30:25;;;;;;;;;;;16.20;99.90;;;;;;5131928;27;19996;-81
2023/07/13 00:32:51;;;;;;;;;;;16.20;99.90;;;;;;5114800;27;19950;-77
2023/07/13 00:35:17;;;;;;;;;;;16.20;99.90;;;;;;5114845;27;20447;-82
2023/07/13 00:37:42;;;;;;;;;;;16.20;99.90;;;;;;5131972;27;19927;-79
2023/07/13 00:40:15;;;;;;;;;;;16.20;99.90;;;;;;5133456;27;20014;-81
2023/07/13 00:42:42;;;;;;;;;;;16.20;99.90;;;;;;5132060;27;20029;-78
2023/07/13 00:45:12;;;;;;;;;;;16.20;99.90;;;;;;5131641;28;19975;-81
2023/07/13 00:47:40;;;;;;;;;;;16.10;99.90;;;;;;5131151;28;19967;-78
2023/07/13 00:50:08;;;;;;;;;;;16.10;99.90;;;;;;5122691;28;19927;-79
2023/07/13 00:52:36;;;;;;;;;;;16.10;99.90;;;;;;5111164;28;19927;-81
2023/07/13 00:55:05;;;;;;;;;;;16.00;99.90;;;;;;5112785;28;19942;-83
2023/07/13 00:57:31;;;;;;;;;;;16.00;99.90;;;;;;5094075;28;20349;-80
2023/07/13 00:59:59;;;;;;;;;;;15.90;99.90;;;;;;5093806;28;19924;-79
2023/07/13 01:02:25;;;;;;;;;;;15.90;99.90;;;;;;5111130;28;19926;-79
2023/07/13 01:04:51;;;;;;;;;;;15.90;99.90;;;;;;5077770;28;19920;-81
2023/07/13 01:07:17;;;;;;;;;;;15.90;99.90;;;;;;5094418;28;19931;-80
2023/07/13 01:09:44;;;;;;;;;;;15.80;99.90;;;;;;5111150;28;19924;-80
2023/07/13 01:12:11;;;;;;;;;;;15.80;99.90;;;;;;5114281;28;20334;-78
2023/07/13 01:14:37;;;;;;;;;;;15.80;99.90;;;;;;5132063;28;19923;-79
2023/07/13 01:17:03;;;;;;;;;;;15.80;99.90;;;;;;5115306;28;19923;-78
2023/07/13 01:19:39;;;;;;;;;;;15.80;99.90;;;;;;5131664;28;19967;-80
2023/07/13 01:22:08;;;;;;;;;;;15.80;99.90;;;;;;5118582;27;20279;-82
2023/07/13 01:24:39;;;;;;;;;;;15.80;99.90;;;;;;5135288;27;19924;-83
2023/07/13 01:27:07;;;;;;;;;;;15.80;99.90;;;;;;5135612;27;20337;-81
2023/07/13 01:29:33;;;;;;;;;;;15.70;99.90;;;;;;5137080;27;20331;-79
2023/07/13 01:32:00;;;;;;;;;;;15.70;99.90;;;;;;5136299;27;19935;-79
2023/07/13 01:34:26;;;;;;;;;;;15.70;99.90;;;;;;5134763;27;19919;-79
2023/07/13 01:36:53;;;;;;;;;;;15.70;99.90;;;;;;5118234;27;19929;-80
2023/07/13 01:39:20;;;;;;;;;;;15.70;99.90;;;;;;5135578;27;20366;-78
2023/07/13 01:41:52;;;;;;;;;;;15.70;99.90;;;;;;5135229;27;19983;-82
2023/07/13 01:44:17;;;;;;;;;;;15.70;99.90;;;;;;5117742;27;19919;-81
2023/07/13 01:46:43;;;;;;;;;;;15.70;99.90;;;;;;5134556;27;20002;-80
2023/07/13 01:49:10;;;;;;;;;;;15.70;99.90;;;;;;5133579;27;19923;-79
2023/07/13 01:51:36;;;;;;;;;;;15.70;99.90;;;;;;5114695;28;20014;-80
2023/07/13 01:54:01;;;;;;;;;;;15.70;99.90;;;;;;5097399;28;20462;-81
2023/07/13 01:56:27;;;;;;;;;;;15.70;99.90;;;;;;5114341;28;20288;-82
2023/07/13 01:58:52;;;;;;;;;;;15.70;99.90;;;;;;5114203;28;19964;-82
2023/07/13 02:01:18;;;;;;;;;;;15.80;99.90;;;;;;5114695;27;19920;-79
2023/07/13 02:03:43;;;;;;;;;;;15.80;99.90;;;;;;5117980;27;20482;-80
2023/07/13 02:06:09;;;;;;;;;;;15.70;99.90;;;;;;5134528;27;20033;-80
2023/07/13 02:08:35;;;;;;;;;;;15.80;99.90;;;;;;5134854;27;19966;-81
2023/07/13 02:11:03;;;;;;;;;;;15.70;99.90;;;;;;5135098;27;20000;-81
2023/07/13 02:13:28;;;;;;;;;;;15.70;99.90;;;;;;5134491;27;20038;-81
2023/07/13 02:15:54;;;;;;;;;;;15.70;99.90;;;;;;5117377;27;20015;-79
2023/07/13 02:18:20;;;;;;;;;;;15.60;99.90;;;;;;5135106;27;19926;-82
2023/07/13 02:20:46;;;;;;;;;;;15.60;99.90;;;;;;5134483;27;19924;-79
2023/07/13 02:23:12;;;;;;;;;;;15.60;99.90;;;;;;5099973;27;19926;-80
2023/07/13 02:25:37;;;;;;;;;;;15.50;99.90;;;;;;5133714;27;20010;-78
2023/07/13 02:28:03;;;;;;;;;;;15.50;99.90;;;;;;5117055;27;19920;-81
2023/07/13 02:30:29;;;;;;;;;;;15.50;99.90;;;;;;5133635;27;19976;-79
2023/07/13 02:32:55;;;;;;;;;;;15.40;99.90;;;;;;5133129;27;20388;-79
2023/07/13 02:35:21;;;;;;;;;;;15.40;99.90;;;;;;5134087;27;19977;-78
2023/07/13 02:37:47;;;;;;;;;;;15.40;99.90;;;;;;5116685;27;19963;-81
2023/07/13 02:40:13;;;;;;;;;;;15.40;99.90;;;;;;5134045;27;19954;-78
2023/07/13 02:42:39;;;;;;;;;;;15.30;99.90;;;;;;5133028;27;19979;-78
2023/07/13 02:45:05;;;;;;;;;;;15.20;99.90;;;;;;5134028;27;20030;-77
2023/07/13 02:47:31;;;;;;;;;;;15.20;99.90;;;;;;5133585;27;20023;-82
2023/07/13 02:49:57;;;;;;;;;;;15.10;99.90;;;;;;5126266;27;19923;-79
2023/07/13 02:52:23;;;;;;;;;;;15.10;99.90;;;;;;5096357;28;19972;-80
2023/07/13 02:54:48;;;;;;;;;;;15.10;99.90;;;;;;5112496;28;19920;-79
2023/07/13 02:57:14;;;;;;;;;;;15.10;99.90;;;;;;5113037;28;19982;-77
2023/07/13 02:59:39;;;;;;;;;;;15.10;99.90;;;;;;5095876;28;19923;-78
2023/07/13 03:02:05;;;;;;;;;;;15.10;99.90;;;;;;5113113;28;20289;-77
2023/07/13 03:04:31;;;;;;;;;;;15.10;99.90;;;;;;5112576;28;19923;-81
2023/07/13 03:06:59;;;;;;;;;;;15.10;99.90;;;;;;5113231;28;19928;-81
2023/07/13 03:09:25;;;;;;;;;;;15.10;99.90;;;;;;5112939;28;20007;-79
2023/07/13 03:11:54;;;;;;;;;;;15.00;99.90;;;;;;5078351;28;20124;-78
2023/07/13 03:14:21;;;;;;;;;;;15.00;99.90;;;;;;5112980;28;20007;-79
2023/07/13 03:16:46;;;;;;;;;;;15.00;99.90;;;;;;5113143;28;19969;-81
2023/07/13 03:19:12;;;;;;;;;;;15.00;99.90;;;;;;5113037;28;19919;-79
2023/07/13 03:21:37;;;;;;;;;;;14.90;99.90;;;;;;5112213;28;19927;-81
2023/07/13 03:24:09;;;;;;;;;;;15.00;99.90;;;;;;5112659;28;19924;-80
2023/07/13 03:26:34;;;;;;;;;;;14.90;99.90;;;;;;5111631;28;19931;-78
2023/07/13 03:29:00;;;;;;;;;;;14.90;99.90;;;;;;5111573;28;19923;-80
2023/07/13 03:31:28;;;;;;;;;;;14.90;99.90;;;;;;5095342;28;20372;-80
2023/07/13 03:33:55;;;;;;;;;;;15.00;99.90;;;;;;5095109;28;20400;-79
2023/07/13 03:36:22;;;;;;;;;;;15.00;99.90;;;;;;5095498;28;19927;-81
2023/07/13 03:38:49;;;;;;;;;;;15.00;99.90;;;;;;5111852;28;19963;-78
2023/07/13 03:41:16;;;;;;;;;;;15.10;99.90;;;;;;5112418;28;19931;-83
2023/07/13 03:43:42;;;;;;;;;;;15.20;99.90;;;;;;5078200;28;19924;-80
2023/07/13 03:46:09;;;;;;;;;;;15.30;99.90;;;;;;5113110;28;19928;-80
2023/07/13 03:48:35;;;;;;;;;;;15.30;99.90;;;;;;5095595;28;19934;-77
2023/07/13 03:51:01;;;;;;;;;;;15.30;99.90;;;;;;5112471;28;19920;-79
2023/07/13 03:53:26;;;;;;;;;;;15.40;99.90;;;;;;5112720;28;19928;-77
2023/07/13 03:55:52;;;;;;;;;;;15.40;99.90;;;;;;5112697;27;19923;-82
2023/07/13 03:58:29;;;;;;;;;;;15.40;99.90;;;;;;5132609;27;19927;-83
2023/07/13 04:00:55;;;;;;;;;;;15.40;99.90;;;;;;5131813;27;19930;-83
2023/07/13 04:03:20;;;;;;;;;;;15.40;99.90;;;;;;5134399;27;19919;-78
2023/07/13 04:05:46;;;;;;;;;;;15.40;99.90;;;;;;5132356;27;20729;-79
2023/07/13 04:08:17;;;;;;;;;;;15.40;99.90;;;;;;5132804;27;19930;-77
2023/07/13 04:10:43;;;;;;;;;;;15.40;99.90;;;;;;5115171;27;20018;-79
2023/07/13 04:13:10;;;;;;;;;;;15.40;99.90;;;;;;5132351;27;19927;-78
2023/07/13 04:15:35;;;;;;;;;;;15.30;99.90;;;;;;5115069;27;20463;-81
2023/07/13 04:18:03;;;;;;;;;;;15.30;99.90;;;;;;5132348;27;20018;-82
2023/07/13 04:20:29;;;;;;;;;;;15.30;99.90;;;;;;5115657;27;20409;-81
2023/07/13 04:22:54;;;;;;;;;;;15.30;99.90;;;;;;5132954;27;19928;-82
2023/07/13 04:25:21;;;;;;;;;;;15.30;99.90;;;;;;5132394;27;19979;-83
2023/07/13 04:27:47;;;;;;;;;;;15.20;99.90;;;;;;5132532;27;20007;-80
2023/07/13 04:30:18;;;;;;;;;;;15.30;99.90;;;;;;5116728;27;19926;-80
2023/07/13 04:32:45;;;;;;;;;;;15.40;99.90;;;;;;5131781;27;20364;-80
2023/07/13 04:35:14;;;;;;;;;;;15.40;99.90;;;;;;5114987;28;19920;-82
2023/07/13 04:37:43;;;;;;;;;;;15.40;99.90;;;;;;5133267;27;19931;-77
2023/07/13 04:40:12;;;;;;;;;;;15.40;99.90;;;;;;5131901;27;19919;-78
2023/07/13 04:42:39;;;;;;;;;;;15.50;99.90;;;;;;5131875;27;19926;-80
2023/07/13 04:45:06;;;;;;;;;;;16.10;99.90;;;;;;5132669;27;19919;-77
2023/07/13 04:47:31;;;;;;;;;;;15.50;99.90;;;;;;5115013;28;19923;-81
2023/07/13 04:50:00;;;;;;;;;;;15.60;99.90;;;;;;5130696;28;20679;-78
2023/07/13 04:52:25;;;;;;;;;;;15.60;99.90;;;;;;5111525;28;19923;-81
2023/07/13 04:54:51;;;;;;;;;;;15.70;99.90;;;;;;5093865;28;19920;-80
2023/07/13 04:57:17;;;;;;;;;;;15.70;99.90;;;;;;5115372;28;20010;-81
2023/07/13 04:59:42;;;;;;;;;;;15.80;99.90;;;;;;5098234;28;19994;-80
2023/07/13 05:02:08;;;;;;;;;;;15.90;99.90;;;;;;5098198;28;19928;-80
2023/07/13 05:04:33;;;;;;;;;;;15.90;99.90;;;;;;5115593;28;19924;-80
2023/07/13 05:07:00;;;;;;;;;;;16.00;99.90;;;;;;5114802;28;19970;-80
2023/07/13 05:09:26;;;;;;;;;;;16.00;99.90;;;;;;5115392;28;19919;-81
2023/07/13 05:11:52;;;;;;;;;;;16.10;99.90;;;;;;5114953;28;19920;-78
2023/07/13 05:14:17;;;;;;;;;;;16.20;99.90;;;;;;5098305;28;19924;-82
2023/07/13 05:16:43;;;;;;;;;;;16.20;99.90;;;;;;5081144;28;19924;-80
2023/07/13 05:19:09;;;;;;;;;;;16.30;99.90;;;;;;5116050;28;19942;-80
2023/07/13 05:21:35;;;;;;;;;;;16.30;99.90;;;;;;5114969;28;19924;-80
2023/07/13 05:24:00;;;;;;;;;;;16.40;99.90;;;;;;5097837;28;19924;-82
2023/07/13 05:26:26;;;;;;;;;;;16.40;99.90;;;;;;5115119;28;20022;-81
2023/07/13 05:28:52;;;;;;;;;;;16.40;99.90;;;;;;5098694;28;20011;-84
2023/07/13 05:31:18;;;;;;;;;;;16.50;99.90;;;;;;5111090;28;20441;-82
2023/07/13 05:33:45;;;;;;;;;;;16.60;99.90;;;;;;5095066;28;19924;-78
2023/07/13 05:36:10;;;;;;;;;;;16.60;99.90;;;;;;5094776;28;20297;-83
2023/07/13 05:38:36;;;;;;;;;;;16.60;99.90;;;;;;5094831;28;19920;-79
2023/07/13 05:41:02;;;;;;;;;;;16.70;99.90;;;;;;5094195;28;19924;-77
2023/07/13 05:43:27;;;;;;;;;;;16.80;99.90;;;;;;5077056;28;19928;-83
2023/07/13 05:45:54;;;;;;;;;;;16.80;99.90;;;;;;5077004;28;19924;-78
2023/07/13 05:48:19;;;;;;;;;;;16.80;99.90;;;;;;5111640;28;19928;-84
2023/07/13 05:50:45;;;;;;;;;;;16.90;99.90;;;;;;5082356;28;19931;-82
2023/07/13 05:53:12;;;;;;;;;;;16.90;99.90;;;;;;5094344;28;19994;-81
2023/07/13 05:55:40;;;;;;;;;;;17.00;99.90;;;;;;5094116;28;19920;-83
2023/07/13 05:58:06;;;;;;;;;;;17.00;99.90;;;;;;5077141;28;19920;-83
2023/07/13 06:00:31;;;;;;;;;;;17.10;99.90;;;;;;5076887;28;19920;-78
2023/07/13 06:02:58;;;;;;;;;;;17.10;99.90;;;;;;5093391;28;19920;-77
2023/07/13 06:05:28;;;;;;;;;;;17.30;99.90;;;;;;5095195;28;19930;-80
2023/07/13 06:07:55;;;;;;;;;;;17.30;99.90;;;;;;5092996;28;20294;-79
2023/07/13 06:10:20;;;;;;;;;;;17.40;99.90;;;;;;5077257;28;20285;-78
2023/07/13 06:12:46;;;;;;;;;;;17.50;99.90;;;;;;5076581;28;19920;-79
2023/07/13 06:15:12;;;;;;;;;;;17.60;99.90;;;;;;5093994;28;19987;-82
2023/07/13 06:17:38;;;;;;;;;;;17.70;99.90;;;;;;5093764;28;19996;-78
2023/07/13 06:20:04;;;;;;;;;;;17.70;99.90;;;;;;5076781;28;19924;-80
2023/07/13 06:22:29;;;;;;;;;;;17.80;99.90;;;;;;5094000;28;19924;-79
2023/07/13 06:24:55;;;;;;;;;;;17.80;99.90;;;;;;5093176;28;20331;-81
2023/07/13 06:27:20;;;;;;;;;;;17.80;99.90;;;;;;5076768;28;19951;-78
2023/07/13 06:29:46;;;;;;;;;;;17.90;99.90;;;;;;5092909;28;19927;-79
2023/07/13 06:32:17;;;;;;;;;;;17.90;99.90;;;;;;5108067;27;19924;-77
2023/07/13 06:34:43;;;;;;;;;;;17.90;99.90;;;;;;5114761;28;19920;-81
2023/07/13 06:37:13;;;;;;;;;;;18.00;99.90;;;;;;5116446;28;19927;-80
2023/07/13 06:39:38;;;;;;;;;;;18.00;99.90;;;;;;5114384;28;19927;-80
2023/07/13 06:42:05;;;;;;;;;;;18.10;99.90;;;;;;5096308;28;19923;-79
2023/07/13 06:44:31;;;;;;;;;;;18.10;99.90;;;;;;5097075;28;19927;-82
2023/07/13 06:46:57;;;;;;;;;;;18.30;99.90;;;;;;5113848;28;20369;-82
2023/07/13 06:49:22;;;;;;;;;;;18.50;99.90;;;;;;5117410;27;19963;-82
2023/07/13 06:51:48;;;;;;;;;;;18.70;99.90;;;;;;5119598;27;20366;-78
2023/07/13 06:54:13;;;;;;;;;;;18.80;99.90;;;;;;5103087;27;19919;-84
2023/07/13 06:56:39;;;;;;;;;;;18.90;99.90;;;;;;5116879;27;19923;-79
2023/07/13 06:59:05;;;;;;;;;;;19.10;99.90;;;;;;5133421;27;19931;-81
2023/07/13 07:01:30;;;;;;;;;;;19.20;99.90;;;;;;5116421;27;19926;-78
2023/07/13 07:03:56;;;;;;;;;;;19.30;99.90;;;;;;5133843;27;19930;-84
2023/07/13 07:06:25;;;;;;;;;;;19.20;99.90;;;;;;5133472;27;19924;-82
2023/07/13 07:08:51;;;;;;;;;;;19.20;99.90;;;;;;5133053;27;19924;-79
2023/07/13 07:11:24;;;;;;;;;;;19.30;99.90;;;;;;5134969;27;19964;-83
2023/07/13 07:13:51;;;;;;;;;;;19.40;99.90;;;;;;5133633;27;19946;-78
2023/07/13 07:16:17;;;;;;;;;;;19.70;99.90;;;;;;5116455;27;19927;-77
2023/07/13 07:18:42;;;;;;;;;;;19.90;99.90;;;;;;5099277;27;20250;-80
2023/07/13 07:21:08;;;;;;;;;;;20.10;99.90;;;;;;5098250;27;19956;-83
2023/07/13 07:23:34;;;;;;;;;;;20.10;99.90;;;;;;5134194;27;19924;-81
2023/07/13 07:26:00;;;;;;;;;;;20.00;99.90;;;;;;5116322;27;19924;-79
2023/07/13 07:28:28;;;;;;;;;;;19.80;99.90;;;;;;5133867;27;20589;-82
2023/07/13 07:30:59;;;;;;;;;;;19.50;99.90;;;;;;5117371;27;19923;-77
2023/07/13 07:33:32;;;;;;;;;;;19.20;99.90;;;;;;5136294;27;20694;-76
2023/07/13 07:35:57;;;;;;;;;;;19.20;99.90;;;;;;5119112;27;20368;-78
2023/07/13 07:38:23;;;;;;;;;;;19.20;99.90;;;;;;5136245;27;19919;-80
2023/07/13 07:40:49;;;;;;;;;;;19.40;99.90;;;;;;5118514;27;19926;-79
2023/07/13 07:43:14;;;;;;;;;;;19.60;99.90;;;;;;5137363;27;19923;-81
2023/07/13 07:45:40;;;;;;;;;;;19.60;99.90;;;;;;5136639;27;20395;-81
2023/07/13 07:48:06;;;;;;;;;;;19.60;99.90;;;;;;5136143;27;19982;-79
2023/07/13 07:50:32;;;;;;;;;;;19.70;99.90;;;;;;5098145;27;19923;-79
2023/07/13 07:52:58;;;;;;;;;;;19.80;99.90;;;;;;5132084;27;19919;-80
2023/07/13 07:55:25;;;;;;;;;;;20.00;99.90;;;;;;5134071;27;19964;-79
2023/07/13 07:57:51;;;;;;;;;;;20.00;99.90;;;;;;5115244;27;19975;-79
2023/07/13 08:00:17;;;;;;;;;;;19.80;99.90;;;;;;5132978;27;19924;-80
2023/07/13 08:02:43;;;;;;;;;;;19.70;99.90;;;;;;5098494;27;20367;-77
2023/07/13 08:05:08;;;;;;;;;;;19.60;99.90;;;;;;5121585;27;19919;-82
2023/07/13 08:07:35;;;;;;;;;;;19.50;99.90;;;;;;5153928;27;19926;-78
2023/07/13 08:10:00;;;;;;;;;;;19.50;99.90;;;;;;5135305;27;20383;-78
2023/07/13 08:12:26;;;;;;;;;;;19.30;99.90;;;;;;5136001;27;19923;-83
2023/07/13 08:14:57;;;;;;;;;;;19.10;99.90;;;;;;5135468;27;19926;-83
2023/07/13 08:17:23;;;;;;;;;;;18.90;99.90;;;;;;5135842;27;19930;-79
2023/07/13 08:19:49;;;;;;;;;;;18.90;99.90;;;;;;5136172;27;20272;-81
2023/07/13 08:22:15;;;;;;;;;;;18.90;99.90;;;;;;5135222;27;19923;-80
2023/07/13 08:24:42;;;;;;;;;;;19.00;99.90;;;;;;5101362;27;19927;-79
2023/07/13 08:27:08;;;;;;;;;;;19.10;99.90;;;;;;5135115;27;19927;-78
2023/07/13 08:29:33;;;;;;;;;;;19.30;99.90;;;;;;5152177;27;20269;-83
2023/07/13 08:32:01;;;;;;;;;;;19.50;99.90;;;;;;5135033;27;19927;-81
2023/07/13 08:34:27;;;;;;;;;;;19.50;99.90;;;;;;5135354;27;19923;-80
2023/07/13 08:36:52;;;;;;;;;;;19.50;99.90;;;;;;5117888;27;20059;-76
2023/07/13 08:39:18;;;;;;;;;;;19.40;99.90;;;;;;5135093;27;20014;-79
2023/07/13 08:41:50;;;;;;;;;;;19.30;99.90;;;;;;5153647;27;19927;-83
2023/07/13 08:44:27;;;;;;;;;;;19.20;99.90;;;;;;5134898;27;19923;-83
2023/07/13 08:46:53;;;;;;;;;;;19.20;99.90;;;;;;5154792;27;19999;-77
2023/07/13 08:49:22;;;;;;;;;;;19.20;99.90;;;;;;5135704;27;19925;-86
2023/07/13 08:51:51;;;;;;;;;;;19.10;99.90;;;;;;5135344;27;20014;-81
2023/07/13 08:54:34;;;;;;;;;;;19.20;99.90;;;;;;5135078;27;19919;-77
2023/07/13 08:57:02;;;;;;;;;;;19.20;99.90;;;;;;5135250;27;19930;-79
2023/07/13 08:59:31;;;;;;;;;;;19.50;99.90;;;;;;5152929;27;19952;-78
2023/07/13 09:02:16;;;;;;;;;;;19.90;99.90;;;;;;5118410;27;20286;-81
2023/07/13 09:04:45;;;;;;;;;;;20.30;99.90;;;;;;5154208;27;19919;-77
2023/07/13 09:07:16;;;;;;;;;;;20.40;99.90;;;;;;5134934;27;19977;-79
2023/07/13 09:09:52;;;;;;;;;;;20.40;99.90;;;;;;5117676;27;19945;-77
2023/07/13 09:12:36;;;;;;;;;;;20.40;99.90;;;;;;5134825;27;19919;-79
2023/07/13 09:15:04;;;;;;;;;;;20.30;99.90;;;;;;5135148;27;19919;-77
2023/07/13 09:17:40;;;;;;;;;;;20.10;99.90;;;;;;5101460;27;19927;-78
2023/07/13 09:20:09;;;;;;;;;;;19.90;99.90;;;;;;5134975;27;19927;-82
2023/07/13 09:22:37;;;;;;;;;;;19.70;99.90;;;;;;5134870;27;20447;-79
2023/07/13 09:25:21;;;;;;;;;;;19.70;99.90;;;;;;5135251;27;20017;-78
2023/07/13 09:27:47;;;;;;;;;;;19.70;99.90;;;;;;5153367;27;20360;-82
2023/07/13 09:30:13;;;;;;;;;;;19.90;99.90;;;;;;5134616;27;19954;-80
2023/07/13 09:32:50;;;;;;;;;;;20.30;99.90;;;;;;5134400;27;19942;-80
2023/07/13 09:35:18;;;;;;;;;;;20.60;99.90;;;;;;5134113;27;19958;-79
2023/07/13 09:37:45;;;;;;;;;;;21.10;99.90;;;;;;5134611;27;19948;-77
2023/07/13 09:40:17;;;;;;;;;;;21.50;99.90;;;;;;5135925;27;19926;-80
2023/07/13 09:42:42;;;;;;;;;;;21.40;99.90;;;;;;5137550;27;20001;-80
2023/07/13 09:45:09;;;;;;;;;;;21.20;99.90;;;;;;5104317;27;20006;-79
2023/07/13 09:47:38;;;;;;;;;;;21.10;99.90;;;;;;5121743;27;20009;-79
2023/07/13 09:50:06;;;;;;;;;;;20.90;99.90;;;;;;5138433;27;19923;-79
2023/07/13 09:52:40;;;;;;;;;;;20.80;99.90;;;;;;5122034;27;19926;-81
2023/07/13 09:55:22;;;;;;;;;;;20.70;99.90;;;;;;5156841;27;19967;-80
2023/07/13 09:57:48;;;;;;;;;;;20.70;99.90;;;;;;5138336;27;19919;-80
2023/07/13 10:00:20;;;;;;;;;;;20.60;99.90;;;;;;5137855;27;19926;-83
2023/07/13 10:02:57;;;;;;;;;;;20.50;99.90;;;;;;5138489;27;19926;-80
2023/07/13 10:05:37;;;;;;;;;;;20.50;99.90;;;;;;5106162;27;19930;-77
2023/07/13 10:08:02;;;;;;;;;;;20.40;99.90;;;;;;5121043;27;19946;-85
2023/07/13 10:10:31;;;;;;;;;;;20.30;99.90;;;;;;5156971;27;19927;-80
2023/07/13 10:12:57;;;;;;;;;;;20.20;99.90;;;;;;5121145;27;19919;-80
2023/07/13 10:15:27;;;;;;;;;;;20.20;99.90;;;;;;5120306;27;19967;-79
2023/07/13 10:17:55;;;;;;;;;;;20.40;99.90;;;;;;5137028;27;19935;-79
2023/07/13 10:20:21;;;;;;;;;;;20.90;99.90;;;;;;5137622;27;19923;-79
2023/07/13 10:22:56;;;;;;;;;;;21.10;99.90;;;;;;5137728;27;19919;-79
2023/07/13 10:25:23;;;;;;;;;;;21.10;99.90;;;;;;5155992;27;19927;-80
2023/07/13 10:27:54;;;;;;;;;;;21.10;99.90;;;;;;5137495;27;19968;-79
2023/07/13 10:30:25;;;;;;;;;;;21.20;99.90;;;;;;5137557;27;19925;-81
2023/07/13 10:32:52;;;;;;;;;;;21.40;99.90;;;;;;5137365;27;19931;-80
2023/07/13 10:35:19;;;;;;;;;;;21.80;99.90;;;;;;5136866;27;20408;-81
2023/07/13 10:37:57;;;;;;;;;;;22.10;99.90;;;;;;5120407;27;19979;-82
2023/07/13 10:40:34;;;;;;;;;;;22.40;99.90;;;;;;5120123;27;20037;-77
2023/07/13 10:43:04;;;;;;;;;;;22.40;99.90;;;;;;5137281;27;19954;-80
2023/07/13 10:45:34;;;;;;;;;;;22.20;99.90;;;;;;5137449;27;19919;-80
2023/07/13 10:47:59;;;;;;;;;;;22.10;99.90;;;;;;5120322;27;19966;-82
2023/07/13 10:50:26;;;;;;;;;;;21.90;99.10;;;;;;5133749;27;19970;-83
2023/07/13 10:53:01;;;;;;;;;;;21.80;99.40;;;;;;5133214;27;19981;-82
2023/07/13 10:55:38;;;;;;;;;;;21.80;99.40;;;;;;5135605;27;19919;-77
2023/07/13 10:58:23;;;;;;;;;;;21.90;98.90;;;;;;5135634;27;20242;-80
2023/07/13 11:01:04;;;;;;;;;;;22.10;99.30;;;;;;5133461;27;20045;-79
2023/07/13 11:03:37;;;;;;;;;;;22.20;97.70;;;;;;5135212;27;20289;-79
2023/07/13 11:06:05;;;;;;;;;;;22.30;98.10;;;;;;5122612;27;19927;-82
2023/07/13 11:08:33;;;;;;;;;;;22.40;97.80;;;;;;5134153;27;20566;-79
2023/07/13 11:10:58;;;;;;;;;;;22.60;97.30;;;;;;5133528;27;20384;-82
2023/07/13 11:13:43;;;;;;;;;;;22.80;97.20;;;;;;5099208;27;20019;-79
2023/07/13 11:16:17;;;;;;;;;;;23.00;97.00;;;;;;5116615;27;19919;-78
2023/07/13 11:19:03;;;;;;;;;;;23.20;96.30;;;;;;5116380;27;19977;-81
2023/07/13 11:21:34;;;;;;;;;;;23.10;96.10;;;;;;5134251;27;19919;-77
2023/07/13 11:24:18;;;;;;;;;;;22.90;95.80;;;;;;5098922;27;19919;-79
2023/07/13 11:26:51;;;;;;;;;;;22.90;96.70;;;;;;5115989;27;19974;-83
2023/07/13 11:29:19;;;;;;;;;;;22.90;94.80;;;;;;5098528;27;19960;-78
2023/07/13 11:31:54;;;;;;;;;;;22.80;95.20;;;;;;5098562;27;19934;-79
2023/07/13 11:34:40;;;;;;;;;;;22.80;95.70;;;;;;5115580;27;20307;-78
2023/07/13 11:37:13;;;;;;;;;;;22.90;94.90;;;;;;5115416;27;19920;-80
2023/07/13 11:39:41;;;;;;;;;;;23.00;94.70;;;;;;5115930;27;20388;-80
2023/07/13 11:42:12;;;;;;;;;;;22.90;94.10;;;;;;5132849;27;19938;-79
2023/07/13 11:44:41;;;;;;;;;;;22.80;94.80;;;;;;5116202;27;20322;-81
2023/07/13 11:47:11;;;;;;;;;;;22.70;94.10;;;;;;5132825;27;19927;-81
2023/07/13 11:49:48;;;;;;;;;;;22.50;93.60;;;;;;5135787;27;19962;-79
2023/07/13 11:52:16;;;;;;;;;;;22.40;94.10;;;;;;5119039;27;20615;-80
2023/07/13 11:54:50;;;;;;;;;;;22.50;94.60;;;;;;5136027;27;19923;-80
2023/07/13 11:57:25;;;;;;;;;;;22.40;95.20;;;;;;5136006;27;19919;-81
2023/07/13 11:59:52;;;;;;;;;;;22.40;94.50;;;;;;5136432;27;20425;-83
2023/07/13 12:02:24;;;;;;;;;;;22.40;94.60;;;;;;5136037;27;19993;-84
2023/07/13 12:04:52;;;;;;;;;;;22.20;94.30;;;;;;5136198;27;20018;-88
2023/07/13 12:07:19;;;;;;;;;;;22.10;95.30;;;;;;5118844;27;19934;-82
2023/07/13 12:09:45;;;;;;;;;;;22.30;95.60;;;;;;5119047;27;19923;-80
2023/07/13 12:12:16;;;;;;;;;;;22.70;94.90;;;;;;5135880;27;20273;-79
2023/07/13 12:14:42;;;;;;;;;;;22.90;94.20;;;;;;5129414;27;19919;-82
2023/07/13 12:17:26;;;;;;;;;;;22.80;93.70;;;;;;5118833;27;19974;-79
2023/07/13 12:19:52;;;;;;;;;;;22.50;92.90;;;;;;5136114;27;19923;-76
2023/07/13 12:22:22;;;;;;;;;;;22.20;93.30;;;;;;5154692;27;19927;-78
2023/07/13 12:24:48;;;;;;;;;;;22.20;93.30;;;;;;5136234;27;19946;-86
2023/07/13 12:27:17;;;;;;;;;;;22.20;93.90;;;;;;5135873;27;20365;-80
2023/07/13 12:29:48;;;;;;;;;;;22.30;93.60;;;;;;5136052;27;20010;-82
2023/07/13 12:32:17;;;;;;;;;;;22.30;93.90;;;;;;5134752;27;19958;-81
2023/07/13 12:34:53;;;;;;;;;;;22.20;93.60;;;;;;5135099;27;20312;-78
2023/07/13 12:37:19;;;;;;;;;;;22.10;94.10;;;;;;5135651;27;19926;-79
2023/07/13 12:39:46;;;;;;;;;;;22.20;93.00;;;;;;5135905;27;19923;-80
2023/07/13 12:42:27;;;;;;;;;;;22.20;92.60;;;;;;5135876;27;19972;-79
2023/07/13 12:44:57;;;;;;;;;;;22.10;93.60;;;;;;5118395;27;19923;-81
2023/07/13 12:47:23;;;;;;;;;;;21.90;94.20;;;;;;5135227;27;20542;-81
2023/07/13 12:49:52;;;;;;;;;;;22.20;94.10;;;;;;5119069;27;19923;-79
2023/07/13 12:52:23;;;;;;;;;;;22.20;93.90;;;;;;5135601;27;19919;-80
2023/07/13 12:55:18;;;;;;;;;;;22.10;93.40;;;;;;5136018;27;19923;-83
2023/07/13 12:57:55;;;;;;;;;;;22.10;94.20;;;;;;5136154;27;20382;-81
2023/07/13 13:00:27;;;;;;;;;;;22.30;95.10;;;;;;5135806;27;19920;-80
2023/07/13 13:02:54;;;;;;;;;;;22.70;95.60;;;;;;5136083;27;20498;-80
2023/07/13 13:05:23;;;;;;;;;;;23.00;95.20;;;;;;5136006;27;20383;-80
2023/07/13 13:07:54;;;;;;;;;;;23.30;95.40;;;;;;5136564;27;19927;-82
2023/07/13 13:10:21;;;;;;;;;;;23.60;95.20;;;;;;5135749;27;19968;-79
2023/07/13 13:12:47;;;;;;;;;;;23.80;94.20;;;;;;5152999;27;19923;-80
2023/07/13 13:15:16;;;;;;;;;;;24.80;93.70;;;;;;5154210;27;20009;-82
2023/07/13 13:17:42;;;;;;;;;;;24.20;93.50;;;;;;5120970;27;20006;-79
2023/07/13 13:20:18;;;;;;;;;;;24.60;93.80;;;;;;5158280;27;19993;-80
2023/07/13 13:22:44;;;;;;;;;;;24.90;93.40;;;;;;5122831;27;20291;-80
2023/07/13 13:25:11;;;;;;;;;;;25.00;93.50;;;;;;5139360;27;19923;-82
2023/07/13 13:27:40;;;;;;;;;;;24.90;93.00;;;;;;5121484;27;19926;-87
2023/07/13 13:30:13;;;;;;;;;;;24.40;92.90;;;;;;5122096;27;19927;-79
2023/07/13 13:32:39;;;;;;;;;;;23.80;93.50;;;;;;5121094;27;19927;-84
2023/07/13 13:35:06;;;;;;;;;;;23.20;93.50;;;;;;5105381;27;19922;-81
2023/07/13 13:37:33;;;;;;;;;;;22.70;94.60;;;;;;5121976;27;19972;-82
2023/07/13 13:39:58;;;;;;;;;;;22.20;97.50;;;;;;5139279;27;19923;-77
2023/07/13 13:42:26;;;;;;;;;;;21.70;99.50;;;;;;5121715;27;19944;-79
2023/07/13 13:44:52;;;;;;;;;;;21.30;99.90;;;;;;5139368;27;19919;-82
2023/07/13 13:47:39;;;;;;;;;;;21.50;99.90;;;;;;5122266;27;19923;-81
2023/07/13 13:50:15;;;;;;;;;;;21.80;99.90;;;;;;5115201;27;19923;-81
2023/07/13 13:52:41;;;;;;;;;;;22.40;99.90;;;;;;5118443;27;19919;-82
2023/07/13 13:55:14;;;;;;;;;;;22.80;99.90;;;;;;5118802;27;19919;-78
2023/07/13 13:57:40;;;;;;;;;;;23.20;99.90;;;;;;5135445;27;19954;-82
2023/07/13 14:00:09;;;;;;;;;;;23.60;99.90;;;;;;5118298;27;20010;-83
2023/07/13 14:02:34;;;;;;;;;;;23.90;99.90;;;;;;5136413;27;19992;-80
2023/07/13 14:05:02;;;;;;;;;;;24.20;99.90;;;;;;5133369;27;20343;-77
2023/07/13 14:07:31;;;;;;;;;;;24.20;99.70;;;;;;5118441;27;20389;-83
2023/07/13 14:10:09;;;;;;;;;;;24.00;97.90;;;;;;5084806;27;19970;-81
2023/07/13 14:12:35;;;;;;;;;;;23.70;98.30;;;;;;5119118;27;19974;-82
2023/07/13 14:15:00;;;;;;;;;;;23.50;97.90;;;;;;5139452;27;19968;-83
2023/07/13 14:17:27;;;;;;;;;;;23.30;97.00;;;;;;5137737;27;19919;-82
2023/07/13 14:19:57;;;;;;;;;;;22.90;97.60;;;;;;5121258;27;19963;-80
2023/07/13 14:22:24;;;;;;;;;;;23.00;97.40;;;;;;5138612;27;19979;-78